Nassauborg — PHDU — position and weather

sailwx.info

Track history (hours):
 
Tides and Currents Weather Stations Pressure Air Temp Water Temp Dewpoint Dewpoint Depression Visibility Wind Speed Wind Dir Waves Ship Positions

Nassauborg

Ship's website: http://www.wagenborg.com/index.cfm?pid=37&itemid=158&contentitemid=236

Last reported at 2017-Oct-19 04:47 UTC. Time now 2017-Oct-20 16:27 UTC.
Position N 60°19' E 019°01'.

Length 143 m; beam 22 m.

Type: Ship. MMSI: 246430000.

Date/timePositionNaut miles runAvg speedWind from/ knotsBaromVisibWave heightAir tempDewpointWater temp
2017-Oct-19 04:47N 60°19' E 019°01'311.5
2017-Oct-19 04:30N 60°16' E 019°03'510.8
2017-Oct-19 04:00N 60°11' E 019°07'611.2
2017-Oct-19 03:30N 60°06' E 019°14'511.3
2017-Oct-19 03:01N 60°02' E 019°21'  
2017-Oct-12 16:19N 56°02' E 016°43'412.8
2017-Oct-12 15:59N 55°60' E 016°37'612.5
2017-Oct-12 15:30N 55°57' E 016°27'612.3
2017-Oct-12 15:00N 55°54' E 016°18'612.2
2017-Oct-12 14:30N 55°51' E 016°08'612.3
2017-Oct-12 14:00N 55°48' E 015°59'612.4
2017-Oct-12 13:30N 55°45' E 015°49'612.6
2017-Oct-12 13:00N 55°41' E 015°40'612.5
2017-Oct-12 12:30N 55°39' E 015°29'612.7
2017-Oct-12 12:00N 55°36' E 015°20'712.7
2017-Oct-12 11:26N 55°32' E 015°09'612.8
2017-Oct-12 11:00N 55°29' E 014°60'612.9
2017-Oct-12 10:30N 55°26' E 014°50'612.7
2017-Oct-12 10:00N 55°23' E 014°40'612.7
2017-Oct-12 09:30N 55°18' E 014°33'612.4
2017-Oct-12 09:00N 55°14' E 014°26'611.6
2017-Oct-12 08:27N 55°10' E 014°16'912.6
2017-Oct-12 07:45N 55°10' E 014°01'1712.3
2017-Oct-12 06:21N 55°12' E 013°31'1212.1
2017-Oct-12 05:22N 55°13' E 013°10'512.0
2017-Oct-12 04:57N 55°14' E 013°01'511.8
2017-Oct-12 04:30N 55°15' E 012°52'611.9
2017-Oct-12 03:58N 55°17' E 012°42'4 9.2
2017-Oct-12 03:30N 55°21' E 012°39'611.2
2017-Oct-12 03:00N 55°27' E 012°41'5 9.0
2017-Oct-12 02:30N 55°31' E 012°42'4 7.7
2017-Oct-12 02:00N 55°35' E 012°42'4 8.2
2017-Oct-12 01:30N 55°39' E 012°41'5 9.5
2017-Oct-12 01:00N 55°44' E 012°41'2 3.9
2017-Oct-12 00:30N 55°46' E 012°43'0 0.0
2017-Oct-12 00:00N 55°46' E 012°43'0 0.0
2017-Oct-11 23:29N 55°46' E 012°43'0 0.0
2017-Oct-11 22:59N 55°46' E 012°43'0 0.0
2017-Oct-11 22:29N 55°46' E 012°43'0 0.0
2017-Oct-11 21:59N 55°46' E 012°43'0 0.0
2017-Oct-11 21:28N 55°46' E 012°43'0 0.0
2017-Oct-11 20:58N 55°46' E 012°43'0 0.0
2017-Oct-11 20:28N 55°46' E 012°43'0 0.0
2017-Oct-11 19:58N 55°46' E 012°43'0 0.0
2017-Oct-11 19:28N 55°46' E 012°43'0 0.0
2017-Oct-11 19:00N 55°46' E 012°43'0 0.1
2017-Oct-11 18:30N 55°46' E 012°43'0 0.2
2017-Oct-11 18:00N 55°45' E 012°43'4 7.0
2017-Oct-11 17:30N 55°42' E 012°41'510.3
2017-Oct-11 17:00N 55°37' E 012°42'19 1.1
2017-Oct-10 23:33N 55°27' E 012°12'0 0.0
2017-Oct-10 23:27N 55°27' E 012°12'0 0.0
2017-Oct-10 22:48N 55°27' E 012°12'0 0.0
2017-Oct-10 22:30N 55°27' E 012°12'0 0.0
2017-Oct-10 21:59N 55°27' E 012°12'0 0.0
2017-Oct-10 21:20N 55°27' E 012°12'0 0.0
2017-Oct-10 20:59N 55°27' E 012°12'0 0.0
2017-Oct-10 20:20N 55°27' E 012°12'0 0.0
2017-Oct-10 19:40N 55°27' E 012°12'0 0.0
2017-Oct-10 19:25N 55°27' E 012°12'0 0.0
2017-Oct-10 18:58N 55°27' E 012°12'0 0.0
2017-Oct-10 18:19N 55°27' E 012°12'0 0.0
2017-Oct-10 17:55N 55°27' E 012°12'0 0.0
2017-Oct-10 17:24N 55°27' E 012°12'0 0.0
2017-Oct-10 16:45N 55°27' E 012°12'0 0.0
2017-Oct-10 16:15N 55°27' E 012°12'0 0.0
2017-Oct-10 15:42N 55°27' E 012°12'0 0.0
2017-Oct-10 15:24N 55°27' E 012°12'0 0.0
2017-Oct-10 14:59N 55°27' E 012°12'0 0.0
2017-Oct-10 13:59N 55°27' E 012°12'0 0.0
2017-Oct-10 13:23N 55°27' E 012°12'0 0.0
2017-Oct-10 12:10N 55°27' E 012°12'0 0.0
2017-Oct-10 11:58N 55°27' E 012°12'0 0.0
2017-Oct-10 11:22N 55°27' E 012°12'0 0.0
2017-Oct-10 10:58N 55°27' E 012°12'0 0.0
2017-Oct-10 10:27N 55°27' E 012°12'0 0.0
2017-Oct-10 09:57N 55°27' E 012°12'0 0.0
2017-Oct-10 09:24N 55°27' E 012°12'0 0.0
2017-Oct-10 08:08N 55°27' E 012°12'0 0.0
2017-Oct-10 07:56N 55°27' E 012°12'0 0.0
2017-Oct-10 07:29N 55°27' E 012°12'0 0.0
2017-Oct-10 06:59N 55°27' E 012°12'0 0.0
2017-Oct-10 06:26N 55°27' E 012°12'0 0.0
2017-Oct-10 05:37N 55°27' E 012°12'0 0.0
2017-Oct-10 05:28N 55°27' E 012°12'0 0.0
2017-Oct-10 04:55N 55°27' E 012°12'0 0.0
2017-Oct-10 04:25N 55°27' E 012°12'0 0.0
2017-Oct-10 03:00N 55°27' E 012°12'0 0.0
2017-Oct-10 02:30N 55°27' E 012°12'0 0.0
2017-Oct-10 01:48N 55°27' E 012°12'0 0.0
2017-Oct-10 00:08N 55°27' E 012°12'0 0.0
2017-Oct-09 23:47N 55°27' E 012°12'0 0.0
2017-Oct-09 23:11N 55°27' E 012°12'0 0.0
2017-Oct-09 22:40N 55°27' E 012°12'0 0.0
2017-Oct-09 22:28N 55°27' E 012°12'0 0.0
2017-Oct-09 21:46N 55°27' E 012°12'0 0.0
2017-Oct-09 21:16N 55°27' E 012°12'0 0.0
2017-Oct-09 20:45N 55°27' E 012°12'0 0.0
2017-Oct-09 20:27N 55°27' E 012°12'0 0.0
2017-Oct-09 19:54N 55°27' E 012°12'0 0.0
2017-Oct-09 19:30N 55°27' E 012°12'0 0.0
2017-Oct-09 18:21N 55°27' E 012°12'0 0.0
2017-Oct-09 17:59N 55°27' E 012°12'0 0.0
2017-Oct-09 17:14N 55°27' E 012°12'0 0.0
2017-Oct-09 16:59N 55°27' E 012°12'0 0.0
2017-Oct-09 16:20N 55°27' E 012°12'0 0.0
2017-Oct-09 15:55N 55°27' E 012°12'0 0.0
2017-Oct-09 15:28N 55°27' E 012°12'0 0.0
2017-Oct-09 14:55N 55°27' E 012°12'0 0.0
2017-Oct-09 14:28N 55°27' E 012°12'0 0.0
2017-Oct-09 13:39N 55°27' E 012°12'0 0.0
2017-Oct-09 13:30N 55°27' E 012°12'0 0.0
2017-Oct-09 12:57N 55°27' E 012°12'0 0.0
2017-Oct-09 12:09N 55°27' E 012°12'0 0.0
2017-Oct-09 12:00N 55°27' E 012°12'0 0.0
2017-Oct-09 11:20N 55°27' E 012°12'0 0.0
2017-Oct-09 10:41N 55°27' E 012°12'0 0.0
2017-Oct-09 10:11N 55°27' E 012°12'0 0.0
2017-Oct-09 09:50N 55°27' E 012°12'0 0.0
2017-Oct-09 08:58N 55°27' E 012°12'0 0.0
2017-Oct-09 08:28N 55°27' E 012°12'0 0.0
2017-Oct-09 07:58N 55°27' E 012°12'0 0.0
2017-Oct-09 07:13N 55°27' E 012°12'0 0.0
2017-Oct-09 06:51N 55°27' E 012°12'0 0.0
2017-Oct-09 06:21N 55°27' E 012°12'0 0.0
2017-Oct-09 05:58N 55°27' E 012°12'  
Track history (hours):
 
Tides and Currents Weather Stations Pressure Air Temp Water Temp Dewpoint Dewpoint Depression Visibility Wind Speed Wind Dir Waves Ship Positions

Nassauborg

Ship's website: http://www.wagenborg.com/index.cfm?pid=37&itemid=158&contentitemid=236

Last reported at 2017-Oct-19 04:47 UTC. Time now 2017-Oct-20 16:27 UTC.
Position N 60°19' E 019°01'.

Length 143 m; beam 22 m.

Type: Ship. MMSI: 246430000.

Date/timePositionNaut miles runAvg speedWind from/ knotsBaromVisibWave heightAir tempDewpointWater temp
2017-Oct-19 04:47N 60°19' E 019°01'311.5
2017-Oct-19 04:30N 60°16' E 019°03'510.8
2017-Oct-19 04:00N 60°11' E 019°07'611.2
2017-Oct-19 03:30N 60°06' E 019°14'511.3
2017-Oct-19 03:01N 60°02' E 019°21'  
2017-Oct-12 16:19N 56°02' E 016°43'412.8
2017-Oct-12 15:59N 55°60' E 016°37'612.5
2017-Oct-12 15:30N 55°57' E 016°27'612.3
2017-Oct-12 15:00N 55°54' E 016°18'612.2
2017-Oct-12 14:30N 55°51' E 016°08'612.3
2017-Oct-12 14:00N 55°48' E 015°59'612.4
2017-Oct-12 13:30N 55°45' E 015°49'612.6
2017-Oct-12 13:00N 55°41' E 015°40'612.5
2017-Oct-12 12:30N 55°39' E 015°29'612.7
2017-Oct-12 12:00N 55°36' E 015°20'712.7
2017-Oct-12 11:26N 55°32' E 015°09'612.8
2017-Oct-12 11:00N 55°29' E 014°60'612.9
2017-Oct-12 10:30N 55°26' E 014°50'612.7
2017-Oct-12 10:00N 55°23' E 014°40'612.7
2017-Oct-12 09:30N 55°18' E 014°33'612.4
2017-Oct-12 09:00N 55°14' E 014°26'611.6
2017-Oct-12 08:27N 55°10' E 014°16'912.6
2017-Oct-12 07:45N 55°10' E 014°01'1712.3
2017-Oct-12 06:21N 55°12' E 013°31'1212.1
2017-Oct-12 05:22N 55°13' E 013°10'512.0
2017-Oct-12 04:57N 55°14' E 013°01'511.8
2017-Oct-12 04:30N 55°15' E 012°52'611.9
2017-Oct-12 03:58N 55°17' E 012°42'4 9.2
2017-Oct-12 03:30N 55°21' E 012°39'611.2
2017-Oct-12 03:00N 55°27' E 012°41'5 9.0
2017-Oct-12 02:30N 55°31' E 012°42'4 7.7
2017-Oct-12 02:00N 55°35' E 012°42'4 8.2
2017-Oct-12 01:30N 55°39' E 012°41'5 9.5
2017-Oct-12 01:00N 55°44' E 012°41'2 3.9
2017-Oct-12 00:30N 55°46' E 012°43'0 0.0
2017-Oct-12 00:00N 55°46' E 012°43'0 0.0
2017-Oct-11 23:29N 55°46' E 012°43'0 0.0
2017-Oct-11 22:59N 55°46' E 012°43'0 0.0
2017-Oct-11 22:29N 55°46' E 012°43'0 0.0
2017-Oct-11 21:59N 55°46' E 012°43'0 0.0
2017-Oct-11 21:28N 55°46' E 012°43'0 0.0
2017-Oct-11 20:58N 55°46' E 012°43'0 0.0
2017-Oct-11 20:28N 55°46' E 012°43'0 0.0
2017-Oct-11 19:58N 55°46' E 012°43'0 0.0
2017-Oct-11 19:28N 55°46' E 012°43'0 0.0
2017-Oct-11 19:00N 55°46' E 012°43'0 0.1
2017-Oct-11 18:30N 55°46' E 012°43'0 0.2
2017-Oct-11 18:00N 55°45' E 012°43'4 7.0
2017-Oct-11 17:30N 55°42' E 012°41'510.3
2017-Oct-11 17:00N 55°37' E 012°42'19 1.1
2017-Oct-10 23:33N 55°27' E 012°12'0 0.0
2017-Oct-10 23:27N 55°27' E 012°12'0 0.0
2017-Oct-10 22:48N 55°27' E 012°12'0 0.0
2017-Oct-10 22:30N 55°27' E 012°12'0 0.0
2017-Oct-10 21:59N 55°27' E 012°12'0 0.0
2017-Oct-10 21:20N 55°27' E 012°12'0 0.0
2017-Oct-10 20:59N 55°27' E 012°12'0 0.0
2017-Oct-10 20:20N 55°27' E 012°12'0 0.0
2017-Oct-10 19:40N 55°27' E 012°12'0 0.0
2017-Oct-10 19:25N 55°27' E 012°12'0 0.0
2017-Oct-10 18:58N 55°27' E 012°12'0 0.0
2017-Oct-10 18:19N 55°27' E 012°12'0 0.0
2017-Oct-10 17:55N 55°27' E 012°12'0 0.0
2017-Oct-10 17:24N 55°27' E 012°12'0 0.0
2017-Oct-10 16:45N 55°27' E 012°12'0 0.0
2017-Oct-10 16:15N 55°27' E 012°12'0 0.0
2017-Oct-10 15:42N 55°27' E 012°12'0 0.0
2017-Oct-10 15:24N 55°27' E 012°12'0 0.0
2017-Oct-10 14:59N 55°27' E 012°12'0 0.0
2017-Oct-10 13:59N 55°27' E 012°12'0 0.0
2017-Oct-10 13:23N 55°27' E 012°12'0 0.0
2017-Oct-10 12:10N 55°27' E 012°12'0 0.0
2017-Oct-10 11:58N 55°27' E 012°12'0 0.0
2017-Oct-10 11:22N 55°27' E 012°12'0 0.0
2017-Oct-10 10:58N 55°27' E 012°12'0 0.0
2017-Oct-10 10:27N 55°27' E 012°12'0 0.0
2017-Oct-10 09:57N 55°27' E 012°12'0 0.0
2017-Oct-10 09:24N 55°27' E 012°12'0 0.0
2017-Oct-10 08:08N 55°27' E 012°12'0 0.0
2017-Oct-10 07:56N 55°27' E 012°12'0 0.0
2017-Oct-10 07:29N 55°27' E 012°12'0 0.0
2017-Oct-10 06:59N 55°27' E 012°12'0 0.0
2017-Oct-10 06:26N 55°27' E 012°12'0 0.0
2017-Oct-10 05:37N 55°27' E 012°12'0 0.0
2017-Oct-10 05:28N 55°27' E 012°12'0 0.0
2017-Oct-10 04:55N 55°27' E 012°12'0 0.0
2017-Oct-10 04:25N 55°27' E 012°12'0 0.0
2017-Oct-10 03:00N 55°27' E 012°12'0 0.0
2017-Oct-10 02:30N 55°27' E 012°12'0 0.0
2017-Oct-10 01:48N 55°27' E 012°12'0 0.0
2017-Oct-10 00:08N 55°27' E 012°12'0 0.0
2017-Oct-09 23:47N 55°27' E 012°12'0 0.0
2017-Oct-09 23:11N 55°27' E 012°12'0 0.0
2017-Oct-09 22:40N 55°27' E 012°12'0 0.0
2017-Oct-09 22:28N 55°27' E 012°12'0 0.0
2017-Oct-09 21:46N 55°27' E 012°12'0 0.0
2017-Oct-09 21:16N 55°27' E 012°12'0 0.0
2017-Oct-09 20:45N 55°27' E 012°12'0 0.0
2017-Oct-09 20:27N 55°27' E 012°12'0 0.0
2017-Oct-09 19:54N 55°27' E 012°12'0 0.0
2017-Oct-09 19:30N 55°27' E 012°12'0 0.0
2017-Oct-09 18:21N 55°27' E 012°12'0 0.0
2017-Oct-09 17:59N 55°27' E 012°12'0 0.0
2017-Oct-09 17:14N 55°27' E 012°12'0 0.0
2017-Oct-09 16:59N 55°27' E 012°12'0 0.0
2017-Oct-09 16:20N 55°27' E 012°12'0 0.0
2017-Oct-09 15:55N 55°27' E 012°12'0 0.0
2017-Oct-09 15:28N 55°27' E 012°12'0 0.0
2017-Oct-09 14:55N 55°27' E 012°12'0 0.0
2017-Oct-09 14:28N 55°27' E 012°12'0 0.0
2017-Oct-09 13:39N 55°27' E 012°12'0 0.0
2017-Oct-09 13:30N 55°27' E 012°12'0 0.0
2017-Oct-09 12:57N 55°27' E 012°12'0 0.0
2017-Oct-09 12:09N 55°27' E 012°12'0 0.0
2017-Oct-09 12:00N 55°27' E 012°12'0 0.0
2017-Oct-09 11:20N 55°27' E 012°12'0 0.0
2017-Oct-09 10:41N 55°27' E 012°12'0 0.0
2017-Oct-09 10:11N 55°27' E 012°12'0 0.0
2017-Oct-09 09:50N 55°27' E 012°12'0 0.0
2017-Oct-09 08:58N 55°27' E 012°12'0 0.0
2017-Oct-09 08:28N 55°27' E 012°12'0 0.0
2017-Oct-09 07:58N 55°27' E 012°12'0 0.0
2017-Oct-09 07:13N 55°27' E 012°12'0 0.0
2017-Oct-09 06:51N 55°27' E 012°12'0 0.0
2017-Oct-09 06:21N 55°27' E 012°12'0 0.0
2017-Oct-09 05:58N 55°27' E 012°12'  

Dump ship's entire track history